sensor_id;sensor_type;location;lat;lon;timestamp;pressure;altitude;pressure_sealevel;temperature;humidity
40730;BME280;26418;50.070;8.436;2023-03-18T00:02:03;99513.13;;;9.70;79.84
40730;BME280;26418;50.070;8.436;2023-03-18T00:04:29;99502.31;;;9.70;79.05
40730;BME280;26418;50.070;8.436;2023-03-18T00:06:55;99514.09;;;9.74;79.07
40730;BME280;26418;50.070;8.436;2023-03-18T00:09:22;99513.63;;;9.72;79.00
40730;BME280;26418;50.070;8.436;2023-03-18T00:11:47;99518.72;;;9.73;78.77
40730;BME280;26418;50.070;8.436;2023-03-18T00:14:13;99524.09;;;9.73;78.61
40730;BME280;26418;50.070;8.436;2023-03-18T00:16:39;99523.00;;;9.74;78.48
40730;BME280;26418;50.070;8.436;2023-03-18T00:19:06;99521.59;;;9.77;77.82
40730;BME280;26418;50.070;8.436;2023-03-18T00:21:31;99520.81;;;9.77;77.61
40730;BME280;26418;50.070;8.436;2023-03-18T00:23:57;99515.41;;;9.77;77.23
40730;BME280;26418;50.070;8.436;2023-03-18T00:26:26;99529.38;;;9.79;77.13
40730;BME280;26418;50.070;8.436;2023-03-18T00:28:54;99536.38;;;9.80;77.39
40730;BME280;26418;50.070;8.436;2023-03-18T00:31:20;99537.78;;;9.77;77.92
40730;BME280;26418;50.070;8.436;2023-03-18T00:33:46;99545.13;;;9.77;77.88
40730;BME280;26418;50.070;8.436;2023-03-18T00:36:13;99551.00;;;9.79;78.54
40730;BME280;26418;50.070;8.436;2023-03-18T00:38:42;99543.00;;;9.73;79.05
40730;BME280;26418;50.070;8.436;2023-03-18T00:41:11;99529.31;;;9.70;79.12
40730;BME280;26418;50.070;8.436;2023-03-18T00:43:47;99546.63;;;9.69;79.59
40730;BME280;26418;50.070;8.436;2023-03-18T00:46:35;99545.44;;;9.61;80.53
40730;BME280;26418;50.070;8.436;2023-03-18T00:49:05;99550.22;;;9.64;81.75
40730;BME280;26418;50.070;8.436;2023-03-18T00:51:32;99555.13;;;9.62;82.19
40730;BME280;26418;50.070;8.436;2023-03-18T00:54:01;99549.44;;;9.64;82.61
40730;BME280;26418;50.070;8.436;2023-03-18T00:56:29;99539.03;;;9.57;82.98
40730;BME280;26418;50.070;8.436;2023-03-18T00:58:56;99538.66;;;9.50;83.56
40730;BME280;26418;50.070;8.436;2023-03-18T01:01:23;99545.53;;;9.56;84.34
40730;BME280;26418;50.070;8.436;2023-03-18T01:03:49;99541.34;;;9.50;85.00
40730;BME280;26418;50.070;8.436;2023-03-18T01:06:19;99546.25;;;9.48;85.88
40730;BME280;26418;50.070;8.436;2023-03-18T01:08:46;99554.94;;;9.44;86.27
40730;BME280;26418;50.070;8.436;2023-03-18T01:11:12;99563.28;;;9.34;87.46
40730;BME280;26418;50.070;8.436;2023-03-18T01:13:38;99555.75;;;9.31;87.92
40730;BME280;26418;50.070;8.436;2023-03-18T01:16:05;99554.34;;;9.34;87.56
40730;BME280;26418;50.070;8.436;2023-03-18T01:18:32;99553.47;;;9.38;87.69
40730;BME280;26418;50.070;8.436;2023-03-18T01:20:58;99530.78;;;9.25;87.66
40730;BME280;26418;50.070;8.436;2023-03-18T01:23:25;99551.66;;;9.34;87.70
40730;BME280;26418;50.070;8.436;2023-03-18T01:25:51;99539.38;;;9.27;88.04
40730;BME280;26418;50.070;8.436;2023-03-18T01:28:17;99546.88;;;9.31;88.89
40730;BME280;26418;50.070;8.436;2023-03-18T01:30:42;99536.16;;;9.25;89.04
40730;BME280;26418;50.070;8.436;2023-03-18T01:33:08;99528.38;;;9.24;89.25
40730;BME280;26418;50.070;8.436;2023-03-18T01:35:35;99537.19;;;9.16;89.76
40730;BME280;26418;50.070;8.436;2023-03-18T01:38:03;99538.88;;;9.11;90.14
40730;BME280;26418;50.070;8.436;2023-03-18T01:40:31;99551.06;;;9.09;90.39
40730;BME280;26418;50.070;8.436;2023-03-18T01:45:36;99546.47;;;8.95;91.27
40730;BME280;26418;50.070;8.436;2023-03-18T01:48:03;99539.34;;;8.86;91.80
40730;BME280;26418;50.070;8.436;2023-03-18T01:50:34;99551.75;;;8.87;92.28
40730;BME280;26418;50.070;8.436;2023-03-18T01:53:07;99547.25;;;8.82;92.69
40730;BME280;26418;50.070;8.436;2023-03-18T01:55:35;99541.66;;;8.78;92.91
40730;BME280;26418;50.070;8.436;2023-03-18T01:58:06;99526.66;;;8.72;93.78
40730;BME280;26418;50.070;8.436;2023-03-18T02:00:38;99530.84;;;8.78;94.17
40730;BME280;26418;50.070;8.436;2023-03-18T02:03:06;99537.34;;;8.77;94.28
40730;BME280;26418;50.070;8.436;2023-03-18T02:05:31;99535.97;;;8.80;94.28
40730;BME280;26418;50.070;8.436;2023-03-18T02:07:57;99524.16;;;8.76;94.57
40730;BME280;26418;50.070;8.436;2023-03-18T02:10:28;99527.06;;;8.79;94.82
40730;BME280;26418;50.070;8.436;2023-03-18T02:12:59;99538.88;;;8.84;95.07
40730;BME280;26418;50.070;8.436;2023-03-18T02:15:27;99525.97;;;8.80;95.14
40730;BME280;26418;50.070;8.436;2023-03-18T02:18:04;99537.28;;;8.83;95.77
40730;BME280;26418;50.070;8.436;2023-03-18T02:23:17;99536.88;;;8.89;96.46
40730;BME280;26418;50.070;8.436;2023-03-18T02:26:24;99537.38;;;8.91;96.96
40730;BME280;26418;50.070;8.436;2023-03-18T02:28:53;99539.88;;;8.88;97.05
40730;BME280;26418;50.070;8.436;2023-03-18T02:31:21;99536.44;;;8.82;97.18
40730;BME280;26418;50.070;8.436;2023-03-18T02:33:47;99542.97;;;8.81;97.48
40730;BME280;26418;50.070;8.436;2023-03-18T02:36:19;99533.06;;;8.76;97.91
40730;BME280;26418;50.070;8.436;2023-03-18T02:38:46;99533.88;;;8.77;97.77
40730;BME280;26418;50.070;8.436;2023-03-18T02:41:20;99535.84;;;8.71;98.07
40730;BME280;26418;50.070;8.436;2023-03-18T02:43:47;99540.66;;;8.74;98.28
40730;BME280;26418;50.070;8.436;2023-03-18T02:46:33;99538.25;;;8.73;98.70
40730;BME280;26418;50.070;8.436;2023-03-18T02:49:04;99534.84;;;8.67;98.72
40730;BME280;26418;50.070;8.436;2023-03-18T02:51:33;99538.13;;;8.64;98.84
40730;BME280;26418;50.070;8.436;2023-03-18T02:54:08;99538.13;;;8.64;99.24
40730;BME280;26418;50.070;8.436;2023-03-18T02:56:36;99549.94;;;8.68;99.23
40730;BME280;26418;50.070;8.436;2023-03-18T02:59:02;99549.72;;;8.64;99.28
40730;BME280;26418;50.070;8.436;2023-03-18T03:01:30;99551.03;;;8.67;99.46
40730;BME280;26418;50.070;8.436;2023-03-18T03:03:56;99547.31;;;8.63;99.44
40730;BME280;26418;50.070;8.436;2023-03-18T03:06:23;99539.84;;;8.60;99.84
40730;BME280;26418;50.070;8.436;2023-03-18T03:08:50;99549.94;;;8.68;99.71
40730;BME280;26418;50.070;8.436;2023-03-18T03:11:16;99555.41;;;8.63;99.60
40730;BME280;26418;50.070;8.436;2023-03-18T03:13:42;99570.47;;;8.64;99.60
40730;BME280;26418;50.070;8.436;2023-03-18T03:16:11;99573.28;;;8.59;99.52
40730;BME280;26418;50.070;8.436;2023-03-18T03:18:37;99574.44;;;8.53;99.62
40730;BME280;26418;50.070;8.436;2023-03-18T03:21:04;99584.72;;;8.51;99.88
40730;BME280;26418;50.070;8.436;2023-03-18T03:23:29;99593.09;;;8.49;100.00
40730;BME280;26418;50.070;8.436;2023-03-18T03:25:55;99585.94;;;8.39;100.00
40730;BME280;26418;50.070;8.436;2023-03-18T03:28:22;99592.06;;;8.45;100.00
40730;BME280;26418;50.070;8.436;2023-03-18T03:30:47;99584.56;;;8.42;100.00
40730;BME280;26418;50.070;8.436;2023-03-18T03:33:13;99580.78;;;8.43;100.00
40730;BME280;26418;50.070;8.436;2023-03-18T03:35:40;99579.16;;;8.42;100.00
40730;BME280;26418;50.070;8.436;2023-03-18T03:38:07;99574.59;;;8.42;100.00
40730;BME280;26418;50.070;8.436;2023-03-18T03:40:34;99578.59;;;8.45;100.00
40730;BME280;26418;50.070;8.436;2023-03-18T03:43:00;99575.25;;;8.53;100.00
40730;BME280;26418;50.070;8.436;2023-03-18T03:45:26;99582.44;;;8.58;100.00
40730;BME280;26418;50.070;8.436;2023-03-18T03:47:51;99575.09;;;8.63;100.00
40730;BME280;26418;50.070;8.436;2023-03-18T03:50:18;99575.09;;;8.63;100.00
40730;BME280;26418;50.070;8.436;2023-03-18T03:52:44;99583.38;;;8.67;99.68
40730;BME280;26418;50.070;8.436;2023-03-18T03:55:12;99557.88;;;8.59;99.29
40730;BME280;26418;50.070;8.436;2023-03-18T03:57:38;99564.78;;;8.65;99.40
40730;BME280;26418;50.070;8.436;2023-03-18T04:00:07;99569.38;;;8.65;99.51
40730;BME280;26418;50.070;8.436;2023-03-18T04:02:34;99553.38;;;8.55;99.34
40730;BME280;26418;50.070;8.436;2023-03-18T04:05:00;99574.38;;;8.58;99.39
40730;BME280;26418;50.070;8.436;2023-03-18T04:07:26;99569.84;;;8.53;99.41
40730;BME280;26418;50.070;8.436;2023-03-18T04:09:53;99572.38;;;8.44;99.61
40730;BME280;26418;50.070;8.436;2023-03-18T04:12:20;99569.28;;;8.37;99.95
40730;BME280;26418;50.070;8.436;2023-03-18T04:14:46;99577.66;;;8.36;100.00
40730;BME280;26418;50.070;8.436;2023-03-18T04:17:12;99585.22;;;8.33;100.00
40730;BME280;26418;50.070;8.436;2023-03-18T04:19:38;99573.16;;;8.31;100.00
40730;BME280;26418;50.070;8.436;2023-03-18T04:22:04;99570.53;;;8.26;100.00
40730;BME280;26418;50.070;8.436;2023-03-18T04:24:30;99570.03;;;8.24;100.00
40730;BME280;26418;50.070;8.436;2023-03-18T04:26:56;99566.25;;;8.25;100.00
40730;BME280;26418;50.070;8.436;2023-03-18T04:29:22;99563.25;;;8.26;100.00
40730;BME280;26418;50.070;8.436;2023-03-18T04:31:48;99563.75;;;8.28;100.00
40730;BME280;26418;50.070;8.436;2023-03-18T04:34:13;99571.03;;;8.28;100.00
40730;BME280;26418;50.070;8.436;2023-03-18T04:36:39;99571.84;;;8.28;100.00
40730;BME280;26418;50.070;8.436;2023-03-18T04:39:05;99577.44;;;8.32;100.00
40730;BME280;26418;50.070;8.436;2023-03-18T04:41:30;99590.34;;;8.35;100.00
40730;BME280;26418;50.070;8.436;2023-03-18T04:43:56;99585.75;;;8.36;100.00
40730;BME280;26418;50.070;8.436;2023-03-18T04:46:22;99583.03;;;8.36;100.00
40730;BME280;26418;50.070;8.436;2023-03-18T04:48:48;99589.22;;;8.36;100.00
40730;BME280;26418;50.070;8.436;2023-03-18T04:51:13;99583.03;;;8.36;100.00
40730;BME280;26418;50.070;8.436;2023-03-18T04:53:42;99588.66;;;8.39;100.00
40730;BME280;26418;50.070;8.436;2023-03-18T04:56:10;99566.34;;;8.33;100.00
40730;BME280;26418;50.070;8.436;2023-03-18T04:58:36;99583.03;;;8.55;100.00
40730;BME280;26418;50.070;8.436;2023-03-18T05:01:01;99580.75;;;8.62;98.94
40730;BME280;26418;50.070;8.436;2023-03-18T05:03:29;99587.38;;;8.70;97.91
40730;BME280;26418;50.070;8.436;2023-03-18T05:05:55;99584.09;;;8.73;96.82
40730;BME280;26418;50.070;8.436;2023-03-18T05:08:21;99578.78;;;8.68;96.46
40730;BME280;26418;50.070;8.436;2023-03-18T05:10:49;99590.78;;;8.75;95.85
40730;BME280;26418;50.070;8.436;2023-03-18T05:13:14;99590.47;;;8.77;95.60
40730;BME280;26418;50.070;8.436;2023-03-18T05:15:40;99582.19;;;8.73;95.39
40730;BME280;26418;50.070;8.436;2023-03-18T05:18:06;99584.31;;;8.76;95.32
40730;BME280;26418;50.070;8.436;2023-03-18T05:20:32;99587.88;;;8.72;95.29
40730;BME280;26418;50.070;8.436;2023-03-18T05:22:58;99595.16;;;8.71;95.67
40730;BME280;26418;50.070;8.436;2023-03-18T05:25:24;99594.94;;;8.68;95.77
40730;BME280;26418;50.070;8.436;2023-03-18T05:27:50;99593.13;;;8.63;96.06
40730;BME280;26418;50.070;8.436;2023-03-18T05:30:16;99594.03;;;8.58;96.32
40730;BME280;26418;50.070;8.436;2023-03-18T05:32:42;99582.38;;;8.44;96.61
40730;BME280;26418;50.070;8.436;2023-03-18T05:35:08;99585.31;;;8.47;97.07
40730;BME280;26418;50.070;8.436;2023-03-18T05:37:34;99591.25;;;8.44;97.42
40730;BME280;26418;50.070;8.436;2023-03-18T05:40:01;99590.16;;;8.45;97.94
40730;BME280;26418;50.070;8.436;2023-03-18T05:42:27;99601.81;;;8.41;98.06
40730;BME280;26418;50.070;8.436;2023-03-18T05:44:52;99601.03;;;8.40;98.35
40730;BME280;26418;50.070;8.436;2023-03-18T05:47:19;99602.22;;;8.34;98.44
40730;BME280;26418;50.070;8.436;2023-03-18T05:49:45;99601.47;;;8.28;98.81
40730;BME280;26418;50.070;8.436;2023-03-18T05:52:13;99602.06;;;8.25;99.26
40730;BME280;26418;50.070;8.436;2023-03-18T05:54:41;99616.34;;;8.26;99.72
40730;BME280;26418;50.070;8.436;2023-03-18T05:57:07;99602.88;;;8.26;99.92
40730;BME280;26418;50.070;8.436;2023-03-18T05:59:33;99611.94;;;8.30;99.95
40730;BME280;26418;50.070;8.436;2023-03-18T06:01:59;99611.44;;;8.28;99.92
40730;BME280;26418;50.070;8.436;2023-03-18T06:04:24;99621.94;;;8.29;100.00
40730;BME280;26418;50.070;8.436;2023-03-18T06:06:51;99623.03;;;8.28;100.00
40730;BME280;26418;50.070;8.436;2023-03-18T06:09:17;99624.91;;;8.28;100.00
40730;BME280;26418;50.070;8.436;2023-03-18T06:11:43;99607.22;;;8.22;100.00
40730;BME280;26418;50.070;8.436;2023-03-18T06:14:09;99622.00;;;8.24;100.00
40730;BME280;26418;50.070;8.436;2023-03-18T06:16:35;99622.09;;;8.19;100.00
40730;BME280;26418;50.070;8.436;2023-03-18T06:19:02;99622.97;;;8.14;100.00
40730;BME280;26418;50.070;8.436;2023-03-18T06:21:28;99621.94;;;8.10;100.00
40730;BME280;26418;50.070;8.436;2023-03-18T06:23:56;99623.84;;;8.10;100.00
40730;BME280;26418;50.070;8.436;2023-03-18T06:26:22;99620.56;;;8.13;100.00
40730;BME280;26418;50.070;8.436;2023-03-18T06:28:47;99625.66;;;8.14;100.00
40730;BME280;26418;50.070;8.436;2023-03-18T06:31:13;99628.13;;;8.11;100.00
40730;BME280;26418;50.070;8.436;2023-03-18T06:33:39;99630.38;;;8.03;100.00
40730;BME280;26418;50.070;8.436;2023-03-18T06:36:05;99632.56;;;8.01;100.00
40730;BME280;26418;50.070;8.436;2023-03-18T06:38:30;99633.94;;;7.99;100.00
40730;BME280;26418;50.070;8.436;2023-03-18T06:40:57;99631.25;;;7.99;100.00
40730;BME280;26418;50.070;8.436;2023-03-18T06:43:24;99630.44;;;7.98;100.00
40730;BME280;26418;50.070;8.436;2023-03-18T06:45:51;99632.63;;;7.96;100.00
40730;BME280;26418;50.070;8.436;2023-03-18T06:48:17;99629.56;;;8.03;100.00
40730;BME280;26418;50.070;8.436;2023-03-18T06:50:44;99624.91;;;8.09;100.00
40730;BME280;26418;50.070;8.436;2023-03-18T06:53:09;99637.91;;;8.26;100.00
40730;BME280;26418;50.070;8.436;2023-03-18T06:55:36;99634.03;;;8.51;100.00
40730;BME280;26418;50.070;8.436;2023-03-18T06:58:03;99634.41;;;8.77;100.00
40730;BME280;26418;50.070;8.436;2023-03-18T07:00:30;99643.19;;;9.02;100.00
40730;BME280;26418;50.070;8.436;2023-03-18T07:02:56;99649.41;;;9.17;100.00
40730;BME280;26418;50.070;8.436;2023-03-18T07:05:22;99657.72;;;9.34;100.00
40730;BME280;26418;50.070;8.436;2023-03-18T07:07:48;99648.75;;;9.39;98.68
40730;BME280;26418;50.070;8.436;2023-03-18T07:10:24;99646.44;;;9.46;98.30
40730;BME280;26418;50.070;8.436;2023-03-18T07:12:50;99645.44;;;9.56;98.10
40730;BME280;26418;50.070;8.436;2023-03-18T07:15:17;99650.13;;;9.64;98.15
40730;BME280;26418;50.070;8.436;2023-03-18T07:17:46;99655.81;;;9.90;97.84
40730;BME280;26418;50.070;8.436;2023-03-18T07:20:13;99655.25;;;10.16;96.41
40730;BME280;26418;50.070;8.436;2023-03-18T07:22:40;99650.50;;;10.36;95.15
40730;BME280;26418;50.070;8.436;2023-03-18T07:25:07;99649.63;;;10.63;94.12
40730;BME280;26418;50.070;8.436;2023-03-18T07:27:34;99657.50;;;10.74;91.05
40730;BME280;26418;50.070;8.436;2023-03-18T07:30:00;99657.94;;;10.67;89.75
40730;BME280;26418;50.070;8.436;2023-03-18T07:32:26;99650.88;;;10.57;90.27
40730;BME280;26418;50.070;8.436;2023-03-18T07:34:54;99663.19;;;10.49;90.36
40730;BME280;26418;50.070;8.436;2023-03-18T07:37:22;99670.47;;;10.40;90.20
40730;BME280;26418;50.070;8.436;2023-03-18T07:39:47;99672.44;;;10.34;91.02
40730;BME280;26418;50.070;8.436;2023-03-18T07:42:13;99670.16;;;10.28;91.23
40730;BME280;26418;50.070;8.436;2023-03-18T07:44:38;99676.06;;;10.30;91.49
40730;BME280;26418;50.070;8.436;2023-03-18T07:47:04;99673.03;;;10.31;91.58
40730;BME280;26418;50.070;8.436;2023-03-18T07:49:30;99675.16;;;10.34;92.07
40730;BME280;26418;50.070;8.436;2023-03-18T07:51:56;99676.16;;;10.38;92.02
40730;BME280;26418;50.070;8.436;2023-03-18T07:54:22;99682.56;;;10.43;92.44
40730;BME280;26418;50.070;8.436;2023-03-18T07:56:52;99671.31;;;10.49;92.26
40730;BME280;26418;50.070;8.436;2023-03-18T07:59:18;99674.09;;;10.58;91.85
40730;BME280;26418;50.070;8.436;2023-03-18T08:01:45;99668.94;;;10.70;90.76
40730;BME280;26418;50.070;8.436;2023-03-18T08:04:11;99669.44;;;10.73;85.21
40730;BME280;26418;50.070;8.436;2023-03-18T08:06:37;99666.13;;;10.76;83.31
40730;BME280;26418;50.070;8.436;2023-03-18T08:09:04;99682.56;;;10.88;82.75
40730;BME280;26418;50.070;8.436;2023-03-18T08:11:30;99678.03;;;10.97;81.82
40730;BME280;26418;50.070;8.436;2023-03-18T08:13:57;99676.91;;;10.98;79.43
40730;BME280;26418;50.070;8.436;2023-03-18T08:16:23;99682.69;;;11.06;79.25
40730;BME280;26418;50.070;8.436;2023-03-18T08:18:49;99675.75;;;11.13;79.41
40730;BME280;26418;50.070;8.436;2023-03-18T08:21:15;99679.56;;;11.12;77.91
40730;BME280;26418;50.070;8.436;2023-03-18T08:23:41;99681.34;;;11.17;77.04
40730;BME280;26418;50.070;8.436;2023-03-18T08:26:06;99685.66;;;11.18;75.68
40730;BME280;26418;50.070;8.436;2023-03-18T08:28:32;99687.41;;;11.23;75.76
40730;BME280;26418;50.070;8.436;2023-03-18T08:30:58;99681.06;;;11.27;75.78
40730;BME280;26418;50.070;8.436;2023-03-18T08:33:25;99680.94;;;11.32;75.33
40730;BME280;26418;50.070;8.436;2023-03-18T08:35:52;99685.41;;;11.37;74.67
40730;BME280;26418;50.070;8.436;2023-03-18T08:38:17;99687.97;;;11.42;74.59
40730;BME280;26418;50.070;8.436;2023-03-18T08:40:44;99690.09;;;11.54;73.97
40730;BME280;26418;50.070;8.436;2023-03-18T08:43:10;99686.44;;;11.59;71.51
40730;BME280;26418;50.070;8.436;2023-03-18T08:45:36;99682.03;;;11.63;72.55
40730;BME280;26418;50.070;8.436;2023-03-18T08:48:02;99684.63;;;11.77;71.33
40730;BME280;26418;50.070;8.436;2023-03-18T08:50:27;99681.16;;;11.94;70.40
40730;BME280;26418;50.070;8.436;2023-03-18T08:52:58;99675.31;;;12.01;69.00
40730;BME280;26418;50.070;8.436;2023-03-18T08:55:29;99681.38;;;12.15;67.11
40730;BME280;26418;50.070;8.436;2023-03-18T08:57:55;99693.69;;;12.30;66.53
40730;BME280;26418;50.070;8.436;2023-03-18T09:00:21;99693.06;;;12.42;66.22
40730;BME280;26418;50.070;8.436;2023-03-18T09:02:47;99687.47;;;12.47;66.65
40730;BME280;26418;50.070;8.436;2023-03-18T09:05:13;99688.44;;;12.69;65.78
40730;BME280;26418;50.070;8.436;2023-03-18T09:07:39;99677.88;;;12.94;65.70
40730;BME280;26418;50.070;8.436;2023-03-18T09:10:05;99674.97;;;13.08;61.58
40730;BME280;26418;50.070;8.436;2023-03-18T09:12:31;99671.56;;;13.28;63.84
40730;BME280;26418;50.070;8.436;2023-03-18T09:14:56;99671.50;;;13.55;60.84
40730;BME280;26418;50.070;8.436;2023-03-18T09:17:22;99677.13;;;13.79;61.69
40730;BME280;26418;50.070;8.436;2023-03-18T09:19:48;99681.63;;;14.05;61.90
40730;BME280;26418;50.070;8.436;2023-03-18T09:22:15;99681.09;;;14.33;61.17
40730;BME280;26418;50.070;8.436;2023-03-18T09:24:42;99687.28;;;14.63;60.49
40730;BME280;26418;50.070;8.436;2023-03-18T09:27:08;99678.50;;;14.79;56.50
40730;BME280;26418;50.070;8.436;2023-03-18T09:29:33;99684.38;;;14.90;57.49
40730;BME280;26418;50.070;8.436;2023-03-18T09:31:59;99689.72;;;14.99;57.40
40730;BME280;26418;50.070;8.436;2023-03-18T09:34:25;99697.34;;;15.05;57.91
40730;BME280;26418;50.070;8.436;2023-03-18T09:36:51;99697.59;;;15.13;58.21
40730;BME280;26418;50.070;8.436;2023-03-18T09:39:18;99686.81;;;15.16;55.39
40730;BME280;26418;50.070;8.436;2023-03-18T09:44:56;99684.34;;;15.36;56.51
40730;BME280;26418;50.070;8.436;2023-03-18T09:47:44;99678.78;;;15.45;56.13
40730;BME280;26418;50.070;8.436;2023-03-18T09:50:46;99685.28;;;15.52;56.37
40730;BME280;26418;50.070;8.436;2023-03-18T09:56:09;99679.16;;;15.80;56.55
40730;BME280;26418;50.070;8.436;2023-03-18T10:01:12;99680.41;;;15.70;54.89
40730;BME280;26418;50.070;8.436;2023-03-18T10:03:58;99671.22;;;16.00;54.67
40730;BME280;26418;50.070;8.436;2023-03-18T10:06:27;99671.06;;;16.09;53.85
40730;BME280;26418;50.070;8.436;2023-03-18T10:19:32;99682.84;;;17.23;52.77
40730;BME280;26418;50.070;8.436;2023-03-18T10:24:38;99683.72;;;17.75;49.48
40730;BME280;26418;50.070;8.436;2023-03-18T10:38:23;99662.44;;;18.00;47.31
40730;BME280;26418;50.070;8.436;2023-03-18T10:40:51;99664.03;;;18.01;47.11
40730;BME280;26418;50.070;8.436;2023-03-18T10:43:23;99668.03;;;18.23;47.25
40730;BME280;26418;50.070;8.436;2023-03-18T10:46:00;99663.63;;;18.19;46.38
40730;BME280;26418;50.070;8.436;2023-03-18T10:48:32;99662.28;;;18.48;46.61
40730;BME280;26418;50.070;8.436;2023-03-18T10:51:08;99663.28;;;18.60;45.35
40730;BME280;26418;50.070;8.436;2023-03-18T10:56:23;99660.81;;;18.35;46.13
40730;BME280;26418;50.070;8.436;2023-03-18T10:58:49;99656.94;;;18.56;46.09
40730;BME280;26418;50.070;8.436;2023-03-18T11:01:18;99665.63;;;18.81;45.31
40730;BME280;26418;50.070;8.436;2023-03-18T11:06:34;99658.09;;;19.17;43.15
40730;BME280;26418;50.070;8.436;2023-03-18T11:09:05;99665.41;;;19.09;43.87
40730;BME280;26418;50.070;8.436;2023-03-18T11:11:33;99656.78;;;19.30;43.98
40730;BME280;26418;50.070;8.436;2023-03-18T11:14:01;99641.44;;;19.53;42.95
40730;BME280;26418;50.070;8.436;2023-03-18T11:18:56;99647.94;;;19.68;42.14
40730;BME280;26418;50.070;8.436;2023-03-18T11:21:23;99651.84;;;19.67;42.49
40730;BME280;26418;50.070;8.436;2023-03-18T11:23:57;99659.94;;;19.83;42.60
40730;BME280;26418;50.070;8.436;2023-03-18T11:26:55;99667.81;;;19.61;42.44
40730;BME280;26418;50.070;8.436;2023-03-18T11:29:25;99657.13;;;19.79;43.47
40730;BME280;26418;50.070;8.436;2023-03-18T11:31:56;99649.31;;;19.54;41.88
40730;BME280;26418;50.070;8.436;2023-03-18T11:34:27;99652.88;;;19.58;42.90
40730;BME280;26418;50.070;8.436;2023-03-18T11:36:58;99663.88;;;19.58;43.06
40730;BME280;26418;50.070;8.436;2023-03-18T11:39:28;99651.56;;;19.48;43.42
40730;BME280;26418;50.070;8.436;2023-03-18T11:41:57;99659.13;;;19.55;43.41
40730;BME280;26418;50.070;8.436;2023-03-18T11:44:26;99652.13;;;19.35;43.76
40730;BME280;26418;50.070;8.436;2023-03-18T11:47:14;99644.69;;;19.35;44.28
40730;BME280;26418;50.070;8.436;2023-03-18T11:49:42;99648.59;;;19.34;43.58
40730;BME280;26418;50.070;8.436;2023-03-18T11:52:44;99655.91;;;19.50;43.52
40730;BME280;26418;50.070;8.436;2023-03-18T11:58:24;99655.34;;;19.17;43.98
40730;BME280;26418;50.070;8.436;2023-03-18T12:01:27;99645.97;;;18.95;44.19
40730;BME280;26418;50.070;8.436;2023-03-18T12:06:24;99631.66;;;18.85;44.57
40730;BME280;26418;50.070;8.436;2023-03-18T12:16:31;99626.03;;;19.44;43.35
40730;BME280;26418;50.070;8.436;2023-03-18T12:25:02;99621.78;;;19.24;44.21
40730;BME280;26418;50.070;8.436;2023-03-18T12:27:40;99623.28;;;19.44;44.13
40730;BME280;26418;50.070;8.436;2023-03-18T12:30:22;99617.84;;;19.75;43.79
40730;BME280;26418;50.070;8.436;2023-03-18T12:41:08;99612.53;;;19.86;42.32
40730;BME280;26418;50.070;8.436;2023-03-18T12:46:42;99603.91;;;19.57;43.20
40730;BME280;26418;50.070;8.436;2023-03-18T12:49:20;99609.00;;;19.58;43.62
40730;BME280;26418;50.070;8.436;2023-03-18T12:54:22;99605.81;;;19.56;43.49
40730;BME280;26418;50.070;8.436;2023-03-18T12:56:55;99602.69;;;19.54;44.17
40730;BME280;26418;50.070;8.436;2023-03-18T12:59:32;99598.97;;;19.43;44.17
40730;BME280;26418;50.070;8.436;2023-03-18T13:04:44;99597.88;;;19.47;43.75
40730;BME280;26418;50.070;8.436;2023-03-18T13:07:19;99594.97;;;19.37;44.17
40730;BME280;26418;50.070;8.436;2023-03-18T13:10:17;99596.38;;;19.27;43.28
40730;BME280;26418;50.070;8.436;2023-03-18T13:12:38;99588.63;;;19.32;44.66
40730;BME280;26418;50.070;8.436;2023-03-18T13:15:47;99608.31;;;19.38;43.94
40730;BME280;26418;50.070;8.436;2023-03-18T13:18:16;99602.81;;;19.38;44.01
40730;BME280;26418;50.070;8.436;2023-03-18T13:20:44;99603.94;;;19.33;43.71
40730;BME280;26418;50.070;8.436;2023-03-18T13:39:24;99589.97;;;19.42;44.04
40730;BME280;26418;50.070;8.436;2023-03-18T13:42:06;99579.19;;;19.30;42.99
40730;BME280;26418;50.070;8.436;2023-03-18T13:47:05;99576.56;;;19.37;43.80
40730;BME280;26418;50.070;8.436;2023-03-18T13:49:35;99578.56;;;19.40;43.82
40730;BME280;26418;50.070;8.436;2023-03-18T13:52:03;99587.41;;;19.30;42.91
40730;BME280;26418;50.070;8.436;2023-03-18T13:54:34;99580.44;;;19.09;44.25
40730;BME280;26418;50.070;8.436;2023-03-18T14:00:12;99581.00;;;18.95;44.68
40730;BME280;26418;50.070;8.436;2023-03-18T14:03:01;99579.91;;;19.00;44.42
40730;BME280;26418;50.070;8.436;2023-03-18T14:05:35;99571.84;;;19.11;44.11
40730;BME280;26418;50.070;8.436;2023-03-18T14:08:31;99584.69;;;19.07;43.19
40730;BME280;26418;50.070;8.436;2023-03-18T14:13:57;99572.34;;;18.74;43.83
40730;BME280;26418;50.070;8.436;2023-03-18T14:19:15;99568.47;;;18.75;44.52
40730;BME280;26418;50.070;8.436;2023-03-18T14:21:45;99576.16;;;18.89;44.45
40730;BME280;26418;50.070;8.436;2023-03-18T14:29:40;99571.81;;;18.88;43.79
40730;BME280;26418;50.070;8.436;2023-03-18T14:38:11;99563.94;;;18.63;44.66
40730;BME280;26418;50.070;8.436;2023-03-18T14:40:41;99564.31;;;18.61;44.95
40730;BME280;26418;50.070;8.436;2023-03-18T14:45:46;99561.06;;;18.13;44.55
40730;BME280;26418;50.070;8.436;2023-03-18T14:48:20;99564.06;;;17.88;45.30
40730;BME280;26418;50.070;8.436;2023-03-18T14:50:49;99569.84;;;17.67;45.98
40730;BME280;26418;50.070;8.436;2023-03-18T14:53:32;99565.25;;;17.55;46.48
40730;BME280;26418;50.070;8.436;2023-03-18T14:56:00;99559.22;;;17.46;46.55
40730;BME280;26418;50.070;8.436;2023-03-18T14:58:27;99557.38;;;17.34;47.02
40730;BME280;26418;50.070;8.436;2023-03-18T15:01:09;99557.81;;;17.36;46.53
40730;BME280;26418;50.070;8.436;2023-03-18T15:03:42;99548.91;;;17.39;46.60
40730;BME280;26418;50.070;8.436;2023-03-18T15:06:18;99549.69;;;17.39;46.52
40730;BME280;26418;50.070;8.436;2023-03-18T15:09:02;99554.22;;;17.32;47.07
40730;BME280;26418;50.070;8.436;2023-03-18T15:11:30;99551.03;;;17.29;48.55
40730;BME280;26418;50.070;8.436;2023-03-18T15:14:01;99558.94;;;17.35;47.74
40730;BME280;26418;50.070;8.436;2023-03-18T15:16:28;99555.38;;;17.31;47.81
40730;BME280;26418;50.070;8.436;2023-03-18T15:18:57;99553.53;;;17.19;48.01